map of ILY home
ILY - Airport
Location
City:  Islay, Argyll, Scotland, United Kingdom
Name:Port Ellen Airport
ICAO:EGPI
IATA:ILY

Details
Type:Airport (Aerodrome, Airfield)
Latitude:5540'55"N (55.681944)
Longitude:615'24"W (-6.256666)
Datum:WGS 1984
Elevation:56 ft (17 m)
Variation:3.47W (WMM2015 magnetic declination)
0.17 annual change
Runways:2
Longest:5069 × 151 ft (1545 × 46 m), paved

Time
Time Zone:UTC+0 (DST+1)
Local Time:

Weather
METAR:EGPI 172250Z AUTO 29020KT 9999 FEW037/// SCT048/// 09/06 Q1020

Related Locations
Nearby:
Farthest:SZS: 11777 mi / 18953 km
Ryan's Creek, Stewart Island, STL, NZ

Find:

   beyond  
but within

Other Information
Maps:
NOTAMs:
Links:
Sources:

  
flag of United Kingdom
flag of Scotland
  

Sectional Chart

Flight Planning
at skyvector.com

Satellite Image

Google Maps Satellite view

 

Copyright © 2004-2017 Karl L. Swartz. All rights reserved.
The Great Circle Mapper name and logo are trademarks of the Great Circle Mapper.
All other trademarks mentioned herein belong to their respective owners.
Please see credits for attibutions and further copyright information.

  Follow gcmap on Facebook Follow gcmap on Twitter Follow gcmap on Google+ GCmap on LinkedIn

hCard Microformat

Geo Microformat